Погода Рибейран-Бонитуна неделю

Сан-Паулу, Бразилия

19 - 25 июля
  • 19июля
    Сегодня
    +13°
    +30°
    Ясно и безоблачно
    ВремяПогодаТемператураВлажностьДавлениеВетер, м/сВероятность осадков
    00:00Ясно и безоблачно+18°C62 %715 мм2.8 м/с5 %
    03:00Ясно и безоблачно+16°C80 %714 мм3.5 м/с5 %
    06:00Ясно и безоблачно+15°C88 %715 мм3.3 м/с5 %
    09:00Ясно и безоблачно+19°C61 %717 мм2.3 м/с5 %
    12:00Ясно и безоблачно+27°C31 %717 мм0.9 м/с5 %
    15:00Ясно и безоблачно+29°C29 %716 мм1.5 м/с5 %
    18:00Ясно и безоблачно+25°C46 %716 мм3.4 м/с5 %
    21:00Ясно и безоблачно+21°C54 %716 мм3.1 м/с5 %
  • 20июля
    Суббота
    +12°
    +30°
    Ясно и безоблачно
    ВремяПогодаТемператураВлажностьДавлениеВетер, м/сВероятность осадков
    00:00Ясно и безоблачно+18°C57 %715 мм2.7 м/с5 %
    03:00Ясно и безоблачно+16°C59 %714 мм2.6 м/с5 %
    06:00Ясно и безоблачно+14°C71 %714 мм2.5 м/с5 %
    09:00Ясно и безоблачно+19°C51 %715 мм1.4 м/с5 %
    12:00Ясно и безоблачно+28°C31 %716 мм0.7 м/с5 %
    15:00Ясно и безоблачно+29°C31 %714 мм1.9 м/с5 %
    18:00Ясно и безоблачно+25°C46 %714 мм2.9 м/с5 %
    21:00Ясно и безоблачно+20°C57 %714 мм2.9 м/с5 %
  • 21июля
    Воскресенье
    +14°
    +30°
    Ясно и безоблачно
    ВремяПогодаТемператураВлажностьДавлениеВетер, м/сВероятность осадков
    00:00Ясно и безоблачно+18°C62 %714 мм3.3 м/с5 %
    03:00Ясно и безоблачно+16°C80 %713 мм2.7 м/с5 %
    06:00Ясно и безоблачно+13°C84 %713 мм2.1 м/с5 %
    09:00Ясно и безоблачно+19°C57 %715 мм1.9 м/с5 %
    12:00Ясно и безоблачно+27°C32 %715 мм2.3 м/с5 %
    15:00Ясно и безоблачно+30°C27 %713 мм1.0 м/с5 %
    18:00Ясно и безоблачно+26°C40 %713 мм1.0 м/с5 %
    21:00Ясно и безоблачно+21°C56 %714 мм2.5 м/с5 %
  • 22июля
    Понедельник
    +15°
    +30°
    Ясно и безоблачно
    ВремяПогодаТемператураВлажностьДавлениеВетер, м/сВероятность осадков
    00:00Ясно и безоблачно+18°C62 %714 мм2.0 м/с5 %
    03:00Ясно и безоблачно+16°C65 %713 мм1.9 м/с5 %
    06:00Ясно и безоблачно+14°C74 %713 мм1.9 м/с5 %
    09:00Ясно и безоблачно+20°C50 %716 мм1.1 м/с5 %
    12:00Ясно и безоблачно+28°C28 %716 мм1.2 м/с5 %
    15:00Ясно и безоблачно+30°C25 %715 мм1.7 м/с5 %
    18:00Ясно и безоблачно+26°C36 %715 мм3.1 м/с5 %
    21:00Ясно и безоблачно+22°C47 %715 мм2.8 м/с5 %
  • 23июля
    Вторник
    +16°
    +30°
    Ясно и безоблачно
    ВремяПогодаТемператураВлажностьДавлениеВетер, м/сВероятность осадков
    00:00Ясно и безоблачно+20°C57 %715 мм3.3 м/с5 %
    03:00Ясно и безоблачно+18°C71 %714 мм3.5 м/с5 %
    06:00Ясно и безоблачно+16°C75 %714 мм3.0 м/с5 %
    09:00Ясно и безоблачно+20°C54 %716 мм2.1 м/с5 %
    12:00Ясно и безоблачно+28°C32 %717 мм3.2 м/с5 %
    15:00Ясно и безоблачно+30°C28 %715 мм2.0 м/с5 %
    18:00Ясно и безоблачно+27°C36 %715 мм0.8 м/с5 %
    21:00Ясно и безоблачно+22°C57 %715 мм3.0 м/с5 %
Мы используем cookies
Соглашаюсь